sensor_id;sensor_type;location;lat;lon;timestamp;P1;P2;P0
46044;PMS7003;31781;54.094;13.428;2022-10-17T00:30:06;5.00;3.00;3.00
46044;PMS7003;31781;54.094;13.428;2022-10-17T00:35:15;2.75;2.75;2.00
46044;PMS7003;31781;54.094;13.428;2022-10-17T00:40:19;2.00;2.00;2.00
46044;PMS7003;31781;54.094;13.428;2022-10-17T00:45:44;1.75;1.75;1.25
46044;PMS7003;31781;54.094;13.428;2022-10-17T00:50:47;2.50;2.50;2.25
46044;PMS7003;31781;54.094;13.428;2022-10-17T00:55:52;4.25;3.00;3.00
46044;PMS7003;31781;54.094;13.428;2022-10-17T01:01:01;4.75;3.75;3.50
46044;PMS7003;31781;54.094;13.428;2022-10-17T01:06:08;1.75;1.50;1.50
46044;PMS7003;31781;54.094;13.428;2022-10-17T01:11:19;2.50;2.50;2.25
46044;PMS7003;31781;54.094;13.428;2022-10-17T01:16:41;3.00;3.00;3.00
46044;PMS7003;31781;54.094;13.428;2022-10-17T01:21:49;3.00;3.00;2.00
46044;PMS7003;31781;54.094;13.428;2022-10-17T01:32:34;4.00;4.00;3.00
46044;PMS7003;31781;54.094;13.428;2022-10-17T01:37:42;2.00;2.00;2.00
46044;PMS7003;31781;54.094;13.428;2022-10-17T01:42:52;3.75;3.75;3.00
46044;PMS7003;31781;54.094;13.428;2022-10-17T01:48:07;2.00;2.00;2.00
46044;PMS7003;31781;54.094;13.428;2022-10-17T02:14:28;4.00;2.00;2.00
46044;PMS7003;31781;54.094;13.428;2022-10-17T02:24:57;5.50;5.50;4.00
46044;PMS7003;31781;54.094;13.428;2022-10-17T02:41:20;4.00;4.00;3.50
46044;PMS7003;31781;54.094;13.428;2022-10-17T02:46:25;3.50;3.50;2.50
46044;PMS7003;31781;54.094;13.428;2022-10-17T03:07:22;3.00;3.00;3.00
46044;PMS7003;31781;54.094;13.428;2022-10-17T03:17:46;2.00;2.00;2.00
46044;PMS7003;31781;54.094;13.428;2022-10-17T03:28:01;2.00;2.00;2.00
46044;PMS7003;31781;54.094;13.428;2022-10-17T03:33:09;4.75;4.75;4.50
46044;PMS7003;31781;54.094;13.428;2022-10-17T03:38:29;5.75;5.75;4.00
46044;PMS7003;31781;54.094;13.428;2022-10-17T03:43:32;3.00;3.00;3.00
46044;PMS7003;31781;54.094;13.428;2022-10-17T03:48:35;5.00;5.00;4.00
46044;PMS7003;31781;54.094;13.428;2022-10-17T03:53:44;4.00;4.00;3.25
46044;PMS7003;31781;54.094;13.428;2022-10-17T04:09:44;5.00;3.75;2.75
46044;PMS7003;31781;54.094;13.428;2022-10-17T04:14:47;3.25;3.25;3.00
46044;PMS7003;31781;54.094;13.428;2022-10-17T04:19:50;4.00;4.00;3.50
46044;PMS7003;31781;54.094;13.428;2022-10-17T04:25:00;3.00;3.00;3.00
46044;PMS7003;31781;54.094;13.428;2022-10-17T04:30:23;5.75;4.75;2.75
46044;PMS7003;31781;54.094;13.428;2022-10-17T04:40:47;4.75;3.00;2.00
46044;PMS7003;31781;54.094;13.428;2022-10-17T04:45:50;2.00;2.00;2.00
46044;PMS7003;31781;54.094;13.428;2022-10-17T04:50:55;3.75;3.75;3.00
46044;PMS7003;31781;54.094;13.428;2022-10-17T04:56:06;3.00;3.00;3.00
46044;PMS7003;31781;54.094;13.428;2022-10-17T05:01:11;3.00;2.00;1.75
46044;PMS7003;31781;54.094;13.428;2022-10-17T05:06:16;4.00;4.00;3.25
46044;PMS7003;31781;54.094;13.428;2022-10-17T05:17:05;3.50;3.50;3.00
46044;PMS7003;31781;54.094;13.428;2022-10-17T05:22:08;3.00;3.00;3.00
46044;PMS7003;31781;54.094;13.428;2022-10-17T05:27:12;4.00;4.00;4.00
46044;PMS7003;31781;54.094;13.428;2022-10-17T05:32:20;4.25;4.25;3.00
46044;PMS7003;31781;54.094;13.428;2022-10-17T05:37:23;4.25;4.25;4.00
46044;PMS7003;31781;54.094;13.428;2022-10-17T05:42:27;5.00;5.00;4.00
46044;PMS7003;31781;54.094;13.428;2022-10-17T05:47:35;6.00;6.00;5.00
46044;PMS7003;31781;54.094;13.428;2022-10-17T05:52:39;7.00;7.00;5.00
46044;PMS7003;31781;54.094;13.428;2022-10-17T06:03:05;3.00;3.00;3.00
46044;PMS7003;31781;54.094;13.428;2022-10-17T06:08:11;3.75;2.00;2.00
46044;PMS7003;31781;54.094;13.428;2022-10-17T06:13:14;2.25;1.75;1.75
46044;PMS7003;31781;54.094;13.428;2022-10-17T06:18:29;6.50;6.50;6.00
46044;PMS7003;31781;54.094;13.428;2022-10-17T06:23:32;27.50;27.25;25.00
46044;PMS7003;31781;54.094;13.428;2022-10-17T06:28:35;34.75;31.75;27.50
46044;PMS7003;31781;54.094;13.428;2022-10-17T06:33:44;32.50;31.50;27.50
46044;PMS7003;31781;54.094;13.428;2022-10-17T06:38:47;20.00;18.50;16.75
46044;PMS7003;31781;54.094;13.428;2022-10-17T06:43:50;8.75;8.75;8.75
46044;PMS7003;31781;54.094;13.428;2022-10-17T06:48:59;6.00;6.00;5.25
46044;PMS7003;31781;54.094;13.428;2022-10-17T06:54:02;1.00;1.00;1.00
46044;PMS7003;31781;54.094;13.428;2022-10-17T06:59:06;2.00;2.00;1.00
46044;PMS7003;31781;54.094;13.428;2022-10-17T07:04:17;3.75;2.50;2.00
46044;PMS7003;31781;54.094;13.428;2022-10-17T07:09:21;2.00;2.00;1.75
46044;PMS7003;31781;54.094;13.428;2022-10-17T07:14:24;1.75;1.75;1.50
46044;PMS7003;31781;54.094;13.428;2022-10-17T07:19:34;1.75;1.75;1.50
46044;PMS7003;31781;54.094;13.428;2022-10-17T07:24:37;3.00;3.00;2.00
46044;PMS7003;31781;54.094;13.428;2022-10-17T07:29:40;2.50;2.50;2.00
46044;PMS7003;31781;54.094;13.428;2022-10-17T07:34:49;2.75;2.75;2.25
46044;PMS7003;31781;54.094;13.428;2022-10-17T07:39:52;2.50;2.50;2.25
46044;PMS7003;31781;54.094;13.428;2022-10-17T07:44:58;2.00;2.00;1.75
46044;PMS7003;31781;54.094;13.428;2022-10-17T07:55:26;3.00;3.00;3.00
46044;PMS7003;31781;54.094;13.428;2022-10-17T08:00:29;1.75;1.75;1.75
46044;PMS7003;31781;54.094;13.428;2022-10-17T08:05:33;1.75;1.75;1.25
46044;PMS7003;31781;54.094;13.428;2022-10-17T08:10:41;1.00;1.00;1.00
46044;PMS7003;31781;54.094;13.428;2022-10-17T08:15:44;2.00;2.00;1.50
46044;PMS7003;31781;54.094;13.428;2022-10-17T08:20:47;2.00;2.00;2.00
46044;PMS7003;31781;54.094;13.428;2022-10-17T08:25:56;0.75;0.75;0.50
46044;PMS7003;31781;54.094;13.428;2022-10-17T08:31:02;2.75;2.50;2.50
46044;PMS7003;31781;54.094;13.428;2022-10-17T08:36:27;1.50;0.50;0.00
46044;PMS7003;31781;54.094;13.428;2022-10-17T08:41:36;1.25;1.25;1.25
46044;PMS7003;31781;54.094;13.428;2022-10-17T08:46:47;3.50;3.50;2.50
46044;PMS7003;31781;54.094;13.428;2022-10-17T08:52:02;3.75;2.50;1.00
46044;PMS7003;31781;54.094;13.428;2022-10-17T08:57:26;3.00;3.00;2.67
46044;PMS7003;31781;54.094;13.428;2022-10-17T09:02:33;1.67;1.67;1.67
46044;PMS7003;31781;54.094;13.428;2022-10-17T09:07:45;2.67;2.67;2.33
46044;PMS7003;31781;54.094;13.428;2022-10-17T09:13:03;3.00;3.00;2.67
46044;PMS7003;31781;54.094;13.428;2022-10-17T09:18:14;4.00;4.00;4.00
46044;PMS7003;31781;54.094;13.428;2022-10-17T09:23:23;4.00;4.00;4.00
46044;PMS7003;31781;54.094;13.428;2022-10-17T09:28:34;3.00;2.00;2.00
46044;PMS7003;31781;54.094;13.428;2022-10-17T09:33:41;5.33;3.00;3.00
46044;PMS7003;31781;54.094;13.428;2022-10-17T09:38:56;2.00;2.00;1.67
46044;PMS7003;31781;54.094;13.428;2022-10-17T09:44:13;3.00;3.00;2.00
46044;PMS7003;31781;54.094;13.428;2022-10-17T09:49:37;3.00;3.00;3.00
46044;PMS7003;31781;54.094;13.428;2022-10-17T09:54:45;3.00;3.00;2.00
46044;PMS7003;31781;54.094;13.428;2022-10-17T09:59:55;3.00;3.00;2.00
46044;PMS7003;31781;54.094;13.428;2022-10-17T10:05:08;3.00;3.00;3.00
46044;PMS7003;31781;54.094;13.428;2022-10-17T10:10:27;3.33;3.33;3.00
46044;PMS7003;31781;54.094;13.428;2022-10-17T10:15:33;2.00;2.00;2.00
46044;PMS7003;31781;54.094;13.428;2022-10-17T10:20:43;1.00;1.00;1.00
46044;PMS7003;31781;54.094;13.428;2022-10-17T10:25:53;4.33;3.00;3.00
46044;PMS7003;31781;54.094;13.428;2022-10-17T10:30:59;4.00;4.00;3.00
46044;PMS7003;31781;54.094;13.428;2022-10-17T10:36:40;4.00;4.00;3.33
46044;PMS7003;31781;54.094;13.428;2022-10-17T10:41:50;3.00;3.00;2.33
46044;PMS7003;31781;54.094;13.428;2022-10-17T10:52:28;4.00;3.33;3.00
46044;PMS7003;31781;54.094;13.428;2022-10-17T10:57:35;3.67;3.00;3.00
46044;PMS7003;31781;54.094;13.428;2022-10-17T11:02:41;5.00;4.00;3.00
46044;PMS7003;31781;54.094;13.428;2022-10-17T11:08:10;4.00;4.00;3.00
46044;PMS7003;31781;54.094;13.428;2022-10-17T11:13:23;2.00;2.00;1.67
46044;PMS7003;31781;54.094;13.428;2022-10-17T11:18:56;3.00;3.00;2.67
46044;PMS7003;31781;54.094;13.428;2022-10-17T11:24:06;3.00;3.00;3.00
46044;PMS7003;31781;54.094;13.428;2022-10-17T11:34:38;2.67;2.67;2.67
46044;PMS7003;31781;54.094;13.428;2022-10-17T11:45:14;2.00;2.00;2.00
46044;PMS7003;31781;54.094;13.428;2022-10-17T11:50:23;3.00;3.00;3.00
46044;PMS7003;31781;54.094;13.428;2022-10-17T11:55:49;3.00;3.00;2.67
46044;PMS7003;31781;54.094;13.428;2022-10-17T12:01:05;3.00;3.00;2.00
46044;PMS7003;31781;54.094;13.428;2022-10-17T12:06:16;3.00;3.00;3.00
46044;PMS7003;31781;54.094;13.428;2022-10-17T12:11:47;3.33;3.33;3.00
46044;PMS7003;31781;54.094;13.428;2022-10-17T12:16:54;4.67;3.33;3.00
46044;PMS7003;31781;54.094;13.428;2022-10-17T12:21:59;5.67;4.00;3.00
46044;PMS7003;31781;54.094;13.428;2022-10-17T12:27:30;3.00;3.00;3.00
46044;PMS7003;31781;54.094;13.428;2022-10-17T12:32:51;3.00;3.00;2.00
46044;PMS7003;31781;54.094;13.428;2022-10-17T12:49:03;4.00;4.00;3.33
46044;PMS7003;31781;54.094;13.428;2022-10-17T12:54:20;3.00;3.00;3.00
46044;PMS7003;31781;54.094;13.428;2022-10-17T12:59:29;3.00;3.00;2.67
46044;PMS7003;31781;54.094;13.428;2022-10-17T13:04:32;4.00;4.00;4.00
46044;PMS7003;31781;54.094;13.428;2022-10-17T13:09:40;6.00;4.00;3.00
46044;PMS7003;31781;54.094;13.428;2022-10-17T13:14:54;3.00;3.00;3.00
46044;PMS7003;31781;54.094;13.428;2022-10-17T13:19:57;3.00;3.00;2.00
46044;PMS7003;31781;54.094;13.428;2022-10-17T13:25:05;4.00;4.00;4.00
46044;PMS7003;31781;54.094;13.428;2022-10-17T13:30:26;6.00;3.00;3.00
46044;PMS7003;31781;54.094;13.428;2022-10-17T13:46:40;5.67;5.00;4.00
46044;PMS7003;31781;54.094;13.428;2022-10-17T13:52:13;5.00;4.33;3.33
46044;PMS7003;31781;54.094;13.428;2022-10-17T13:57:20;7.67;4.33;4.00
46044;PMS7003;31781;54.094;13.428;2022-10-17T14:02:46;4.00;4.00;3.00
46044;PMS7003;31781;54.094;13.428;2022-10-17T14:07:52;3.67;3.33;3.00
46044;PMS7003;31781;54.094;13.428;2022-10-17T14:13:17;5.00;4.00;3.00
46044;PMS7003;31781;54.094;13.428;2022-10-17T14:18:33;5.33;4.00;3.67
46044;PMS7003;31781;54.094;13.428;2022-10-17T14:23:47;5.67;4.00;3.67
46044;PMS7003;31781;54.094;13.428;2022-10-17T14:29:02;5.00;4.67;4.00
46044;PMS7003;31781;54.094;13.428;2022-10-17T14:34:23;4.00;4.00;3.00
46044;PMS7003;31781;54.094;13.428;2022-10-17T14:39:29;4.00;4.00;3.33
46044;PMS7003;31781;54.094;13.428;2022-10-17T14:44:33;4.00;4.00;4.00
46044;PMS7003;31781;54.094;13.428;2022-10-17T14:49:42;4.33;4.00;3.00
46044;PMS7003;31781;54.094;13.428;2022-10-17T14:54:48;5.00;5.00;4.33
46044;PMS7003;31781;54.094;13.428;2022-10-17T14:59:52;3.00;1.67;1.67
46044;PMS7003;31781;54.094;13.428;2022-10-17T15:05:02;4.67;4.67;4.00
46044;PMS7003;31781;54.094;13.428;2022-10-17T15:10:23;7.00;5.00;4.00
46044;PMS7003;31781;54.094;13.428;2022-10-17T15:20:56;5.00;5.00;4.00
46044;PMS7003;31781;54.094;13.428;2022-10-17T15:31:36;5.00;3.00;3.00
46044;PMS7003;31781;54.094;13.428;2022-10-17T15:36:40;5.00;5.00;4.67
46044;PMS7003;31781;54.094;13.428;2022-10-17T15:41:44;5.00;5.00;4.00
46044;PMS7003;31781;54.094;13.428;2022-10-17T15:46:53;4.00;4.00;3.33
46044;PMS7003;31781;54.094;13.428;2022-10-17T15:51:57;3.33;3.33;3.00
46044;PMS7003;31781;54.094;13.428;2022-10-17T15:57:00;6.33;6.33;5.67
46044;PMS7003;31781;54.094;13.428;2022-10-17T16:02:09;5.00;5.00;5.00
46044;PMS7003;31781;54.094;13.428;2022-10-17T16:07:15;4.33;4.33;3.33
46044;PMS7003;31781;54.094;13.428;2022-10-17T16:12:21;5.00;5.00;4.00
46044;PMS7003;31781;54.094;13.428;2022-10-17T16:17:45;4.33;4.33;4.00
46044;PMS7003;31781;54.094;13.428;2022-10-17T16:22:50;8.00;8.00;5.67
46044;PMS7003;31781;54.094;13.428;2022-10-17T16:27:55;4.00;4.00;3.67
46044;PMS7003;31781;54.094;13.428;2022-10-17T16:33:06;8.00;7.00;5.00
46044;PMS7003;31781;54.094;13.428;2022-10-17T16:38:10;5.00;5.00;5.00
46044;PMS7003;31781;54.094;13.428;2022-10-17T16:43:12;7.67;7.67;6.33
46044;PMS7003;31781;54.094;13.428;2022-10-17T16:48:23;6.00;6.00;5.00
46044;PMS7003;31781;54.094;13.428;2022-10-17T16:59:03;6.00;6.00;5.67
46044;PMS7003;31781;54.094;13.428;2022-10-17T17:04:06;6.00;6.00;5.00
46044;PMS7003;31781;54.094;13.428;2022-10-17T17:09:26;7.00;7.00;4.67
46044;PMS7003;31781;54.094;13.428;2022-10-17T17:14:29;7.67;6.00;5.33
46044;PMS7003;31781;54.094;13.428;2022-10-17T17:19:32;7.00;7.00;5.67
46044;PMS7003;31781;54.094;13.428;2022-10-17T17:24:41;5.00;5.00;4.00
46044;PMS7003;31781;54.094;13.428;2022-10-17T17:29:45;5.00;5.00;4.33
46044;PMS7003;31781;54.094;13.428;2022-10-17T17:34:49;5.00;5.00;4.00
46044;PMS7003;31781;54.094;13.428;2022-10-17T17:40:01;5.67;5.33;3.33
46044;PMS7003;31781;54.094;13.428;2022-10-17T17:45:08;7.00;5.33;4.00
46044;PMS7003;31781;54.094;13.428;2022-10-17T17:50:11;6.00;6.00;5.67
46044;PMS7003;31781;54.094;13.428;2022-10-17T17:55:41;7.33;7.33;6.67
46044;PMS7003;31781;54.094;13.428;2022-10-17T18:00:51;10.00;10.00;8.00
46044;PMS7003;31781;54.094;13.428;2022-10-17T18:05:55;6.00;6.00;5.00
46044;PMS7003;31781;54.094;13.428;2022-10-17T18:11:08;6.00;6.00;5.67
46044;PMS7003;31781;54.094;13.428;2022-10-17T18:16:12;5.67;5.67;4.33
46044;PMS7003;31781;54.094;13.428;2022-10-17T18:21:16;6.33;6.33;5.67
46044;PMS7003;31781;54.094;13.428;2022-10-17T18:26:24;12.25;12.25;10.00
46044;PMS7003;31781;54.094;13.428;2022-10-17T18:31:29;6.00;6.00;5.75
46044;PMS7003;31781;54.094;13.428;2022-10-17T18:36:36;7.50;7.50;6.00
46044;PMS7003;31781;54.094;13.428;2022-10-17T18:52:29;6.33;6.33;5.33
46044;PMS7003;31781;54.094;13.428;2022-10-17T18:57:33;7.00;7.00;6.00
46044;PMS7003;31781;54.094;13.428;2022-10-17T19:02:36;7.00;7.00;5.25
46044;PMS7003;31781;54.094;13.428;2022-10-17T19:07:44;8.75;7.25;5.50
46044;PMS7003;31781;54.094;13.428;2022-10-17T19:12:48;4.00;4.00;4.00
46044;PMS7003;31781;54.094;13.428;2022-10-17T19:17:51;7.67;7.00;6.00
46044;PMS7003;31781;54.094;13.428;2022-10-17T19:23:03;5.33;5.33;5.00
46044;PMS7003;31781;54.094;13.428;2022-10-17T19:28:06;3.00;3.00;2.67
46044;PMS7003;31781;54.094;13.428;2022-10-17T19:33:10;2.00;0.00;0.00
46044;PMS7003;31781;54.094;13.428;2022-10-17T19:38:19;5.00;3.00;3.00
46044;PMS7003;31781;54.094;13.428;2022-10-17T19:43:23;6.00;3.00;2.67
46044;PMS7003;31781;54.094;13.428;2022-10-17T19:48:26;4.00;4.00;3.33
46044;PMS7003;31781;54.094;13.428;2022-10-17T19:53:38;3.33;3.33;2.00
46044;PMS7003;31781;54.094;13.428;2022-10-17T19:58:41;2.00;2.00;2.00
46044;PMS7003;31781;54.094;13.428;2022-10-17T20:03:44;1.33;1.33;1.00
46044;PMS7003;31781;54.094;13.428;2022-10-17T20:08:53;3.00;3.00;3.00
46044;PMS7003;31781;54.094;13.428;2022-10-17T20:13:57;2.67;2.67;2.00
46044;PMS7003;31781;54.094;13.428;2022-10-17T20:19:02;3.00;3.00;2.33
46044;PMS7003;31781;54.094;13.428;2022-10-17T20:24:23;3.00;3.00;3.00
46044;PMS7003;31781;54.094;13.428;2022-10-17T20:29:26;3.00;3.00;3.00
46044;PMS7003;31781;54.094;13.428;2022-10-17T20:34:29;2.25;2.25;2.00
46044;PMS7003;31781;54.094;13.428;2022-10-17T20:39:39;2.75;2.75;1.75
46044;PMS7003;31781;54.094;13.428;2022-10-17T20:44:42;3.75;3.75;3.00
46044;PMS7003;31781;54.094;13.428;2022-10-17T20:55:28;2.25;2.25;2.00
46044;PMS7003;31781;54.094;13.428;2022-10-17T21:00:31;3.75;3.75;2.25
46044;PMS7003;31781;54.094;13.428;2022-10-17T21:05:36;2.50;2.50;1.75
46044;PMS7003;31781;54.094;13.428;2022-10-17T21:16:09;2.00;2.00;1.75
46044;PMS7003;31781;54.094;13.428;2022-10-17T21:21:15;4.50;4.50;3.75
46044;PMS7003;31781;54.094;13.428;2022-10-17T21:26:21;3.50;3.50;2.75
46044;PMS7003;31781;54.094;13.428;2022-10-17T21:31:30;2.75;2.75;2.00
46044;PMS7003;31781;54.094;13.428;2022-10-17T21:36:34;5.25;3.50;3.50
46044;PMS7003;31781;54.094;13.428;2022-10-17T21:41:37;2.25;2.25;2.00
46044;PMS7003;31781;54.094;13.428;2022-10-17T21:46:47;4.00;3.50;2.50
46044;PMS7003;31781;54.094;13.428;2022-10-17T21:51:51;3.75;3.75;3.00
46044;PMS7003;31781;54.094;13.428;2022-10-17T21:56:55;2.50;2.50;2.50
46044;PMS7003;31781;54.094;13.428;2022-10-17T22:02:16;5.50;4.25;3.75
46044;PMS7003;31781;54.094;13.428;2022-10-17T22:07:20;8.50;5.00;3.50
46044;PMS7003;31781;54.094;13.428;2022-10-17T22:12:30;5.00;5.00;4.25
46044;PMS7003;31781;54.094;13.428;2022-10-17T22:17:42;6.00;6.00;4.50
46044;PMS7003;31781;54.094;13.428;2022-10-17T22:22:45;6.25;6.25;4.75
46044;PMS7003;31781;54.094;13.428;2022-10-17T22:27:49;5.25;5.25;3.50
46044;PMS7003;31781;54.094;13.428;2022-10-17T22:32:57;8.75;8.75;6.50
46044;PMS7003;31781;54.094;13.428;2022-10-17T22:38:00;6.50;6.50;5.25
46044;PMS7003;31781;54.094;13.428;2022-10-17T22:43:03;5.00;5.00;4.25
46044;PMS7003;31781;54.094;13.428;2022-10-17T22:48:27;7.50;6.50;5.00
46044;PMS7003;31781;54.094;13.428;2022-10-17T22:53:32;6.50;6.50;5.50
46044;PMS7003;31781;54.094;13.428;2022-10-17T22:58:36;6.00;6.00;5.00
46044;PMS7003;31781;54.094;13.428;2022-10-17T23:03:44;5.00;5.00;4.25
46044;PMS7003;31781;54.094;13.428;2022-10-17T23:08:49;15.25;12.50;8.50
46044;PMS7003;31781;54.094;13.428;2022-10-17T23:13:52;7.25;7.25;6.00
46044;PMS7003;31781;54.094;13.428;2022-10-17T23:19:01;8.00;7.00;5.25
46044;PMS7003;31781;54.094;13.428;2022-10-17T23:24:04;8.50;7.00;5.50
46044;PMS7003;31781;54.094;13.428;2022-10-17T23:29:29;7.25;7.25;6.00
46044;PMS7003;31781;54.094;13.428;2022-10-17T23:34:51;7.50;7.50;6.00
46044;PMS7003;31781;54.094;13.428;2022-10-17T23:39:54;7.00;7.00;6.00
46044;PMS7003;31781;54.094;13.428;2022-10-17T23:44:57;10.00;8.75;6.75
46044;PMS7003;31781;54.094;13.428;2022-10-17T23:50:06;8.25;8.00;6.00
46044;PMS7003;31781;54.094;13.428;2022-10-17T23:55:09;7.50;7.50;5.00
